createdAt,value
2023-05-16T00:01:35.665Z,6.93
2023-05-16T00:07:00.656Z,7.67
2023-05-16T00:09:31.479Z,7.90
2023-05-16T00:12:00.355Z,8.27
2023-05-16T00:14:29.079Z,8.03
2023-05-16T00:16:59.430Z,6.93
2023-05-16T00:19:28.668Z,7.10
2023-05-16T00:21:57.114Z,7.47
2023-05-16T00:24:25.769Z,8.30
2023-05-16T00:26:54.192Z,7.63
2023-05-16T00:29:24.389Z,8.07
2023-05-16T00:31:53.127Z,6.80
2023-05-16T00:34:23.067Z,8.23
2023-05-16T00:36:56.423Z,8.27
2023-05-16T00:39:25.356Z,7.13
2023-05-16T00:56:48.940Z,8.60
2023-05-16T00:59:18.286Z,8.77
2023-05-16T01:01:47.717Z,8.40
2023-05-16T01:04:16.576Z,8.07
2023-05-16T01:09:34.702Z,7.97
2023-05-16T01:12:31.211Z,8.13
2023-05-16T01:26:43.579Z,7.97
2023-05-16T01:32:00.711Z,9.27
2023-05-16T01:34:29.227Z,9.47
2023-05-16T01:37:00.954Z,7.70
2023-05-16T01:39:35.773Z,8.57
2023-05-16T01:42:07.722Z,7.73
2023-05-16T01:44:38.133Z,8.80
2023-05-16T01:47:09.437Z,9.67
2023-05-16T01:49:39.528Z,9.43
2023-05-16T01:52:11.002Z,9.70
2023-05-16T01:54:40.360Z,8.87
2023-05-16T01:57:10.869Z,10.17
2023-05-16T01:59:40.335Z,10.07
2023-05-16T02:02:08.849Z,8.93
2023-05-16T02:04:39.223Z,10.10
2023-05-16T02:16:07.654Z,9.23
2023-05-16T02:21:32.602Z,11.70
2023-05-16T02:24:08.070Z,11.80
2023-05-16T02:26:36.581Z,10.43
2023-05-16T02:29:05.285Z,12.87
2023-05-16T02:31:36.062Z,10.43
2023-05-16T02:34:04.537Z,10.23
2023-05-16T02:36:34.423Z,11.50
2023-05-16T02:39:27.723Z,13.20
2023-05-16T02:41:56.383Z,12.53
2023-05-16T02:44:24.922Z,11.87
2023-05-16T02:46:57.932Z,11.37
2023-05-16T02:49:26.628Z,12.03
2023-05-16T02:51:55.290Z,11.00
2023-05-16T02:54:23.725Z,12.17
2023-05-16T02:56:52.253Z,10.07
2023-05-16T02:59:21.786Z,11.77
2023-05-16T03:01:50.384Z,10.73
2023-05-16T03:04:20.134Z,10.70
2023-05-16T03:06:48.815Z,10.67
2023-05-16T03:09:17.391Z,12.50
2023-05-16T03:11:45.941Z,12.17
2023-05-16T03:14:14.372Z,11.73
2023-05-16T03:19:12.441Z,10.23
2023-05-16T03:21:42.437Z,10.10
2023-05-16T03:24:11.010Z,10.13
2023-05-16T03:26:39.553Z,10.20
2023-05-16T03:29:07.975Z,11.67
2023-05-16T03:31:37.734Z,10.40
2023-05-16T03:34:07.900Z,11.37
2023-05-16T03:36:36.823Z,9.20
2023-05-16T03:39:08.423Z,11.00
2023-05-16T03:41:36.986Z,11.97
2023-05-16T03:44:05.639Z,11.97
2023-05-16T03:46:35.521Z,12.57
2023-05-16T03:49:04.765Z,11.37
2023-05-16T03:51:33.439Z,10.87
2023-05-16T03:56:53.060Z,13.00
2023-05-16T03:59:21.564Z,12.67
2023-05-16T04:01:51.954Z,12.20
2023-05-16T04:04:36.662Z,13.50
2023-05-16T04:07:05.213Z,10.00
2023-05-16T04:09:33.796Z,10.67
2023-05-16T04:17:24.266Z,10.13
2023-05-16T04:19:53.068Z,13.20
2023-05-16T04:22:23.002Z,12.70
2023-05-16T04:33:40.235Z,14.57
2023-05-16T04:39:07.428Z,13.93
2023-05-16T04:41:36.195Z,10.97
2023-05-16T04:46:49.357Z,11.63
2023-05-16T04:49:19.893Z,13.17
2023-05-16T04:54:44.785Z,13.40
2023-05-16T04:57:13.561Z,11.67
2023-05-16T04:59:43.061Z,13.43
2023-05-16T05:02:11.725Z,13.23
2023-05-16T05:04:44.487Z,13.03
2023-05-16T05:10:09.177Z,10.40
2023-05-16T05:12:38.221Z,11.23
2023-05-16T05:15:07.854Z,13.40
2023-05-16T05:17:38.140Z,11.50
2023-05-16T05:20:10.573Z,11.60
2023-05-16T05:22:42.703Z,12.80
2023-05-16T05:25:11.808Z,10.70
2023-05-16T05:27:42.298Z,11.30
2023-05-16T05:30:11.598Z,11.27
2023-05-16T05:32:40.386Z,12.57
2023-05-16T05:44:01.221Z,12.10
2023-05-16T05:46:29.813Z,13.50
2023-05-16T05:48:58.921Z,14.93
2023-05-16T06:05:50.918Z,14.30
2023-05-16T06:08:19.812Z,13.13
2023-05-16T06:10:48.286Z,14.10
2023-05-16T06:13:17.026Z,14.53
2023-05-16T06:15:51.530Z,13.10
2023-05-16T06:18:20.255Z,12.30
2023-05-16T06:20:50.623Z,12.77
2023-05-16T06:23:21.150Z,13.47
2023-05-16T06:25:56.572Z,13.90
2023-05-16T06:28:31.809Z,11.40
2023-05-16T06:33:56.688Z,14.53
2023-05-16T06:36:26.630Z,12.37
2023-05-16T06:38:55.894Z,13.30
2023-05-16T06:41:24.523Z,15.07
2023-05-16T06:43:53.116Z,13.70
2023-05-16T06:46:23.221Z,14.37
2023-05-16T06:48:52.271Z,13.53
2023-05-16T06:54:22.873Z,12.07
2023-05-16T06:56:51.532Z,12.33
2023-05-16T07:02:09.117Z,13.00
2023-05-16T07:07:38.253Z,12.43
2023-05-16T07:12:58.294Z,11.33
2023-05-16T07:15:27.247Z,11.90
2023-05-16T07:17:57.364Z,10.80
2023-05-16T07:20:26.592Z,13.00
2023-05-16T07:22:57.712Z,10.43
2023-05-16T07:25:26.669Z,12.70
2023-05-16T07:27:57.355Z,11.97
2023-05-16T07:30:26.336Z,13.30
2023-05-16T07:32:54.817Z,13.07
2023-05-16T07:35:23.647Z,11.83
2023-05-16T07:37:52.173Z,13.07
2023-05-16T07:40:23.868Z,12.63
2023-05-16T07:42:52.474Z,13.53
2023-05-16T07:48:22.654Z,13.93
2023-05-16T07:51:01.216Z,12.53
2023-05-16T07:53:30.004Z,12.67
2023-05-16T07:58:48.962Z,13.10
2023-05-16T08:01:41.529Z,12.83
2023-05-16T08:04:11.649Z,12.00
2023-05-16T08:06:41.460Z,13.73
2023-05-16T08:09:09.986Z,12.93
2023-05-16T08:11:39.973Z,13.10
2023-05-16T08:14:08.644Z,12.80
2023-05-16T08:16:37.648Z,13.30
2023-05-16T08:19:06.986Z,13.77
2023-05-16T08:21:37.168Z,12.37
2023-05-16T08:24:06.835Z,13.47
2023-05-16T08:26:37.497Z,13.77
2023-05-16T08:29:06.051Z,13.00
2023-05-16T08:31:34.542Z,13.43
2023-05-16T08:34:06.449Z,12.70
2023-05-16T08:36:36.476Z,12.33
2023-05-16T08:39:07.602Z,12.73
2023-05-16T08:41:36.549Z,11.97
2023-05-16T08:47:04.808Z,12.73
2023-05-16T08:49:33.786Z,13.23
2023-05-16T08:52:03.912Z,12.23
2023-05-16T08:54:34.405Z,12.50
2023-05-16T08:59:54.337Z,11.47
2023-05-16T09:02:23.469Z,12.90
2023-05-16T09:04:52.023Z,11.60
2023-05-16T09:07:20.501Z,13.03
2023-05-16T09:09:50.757Z,11.77
2023-05-16T09:12:19.303Z,11.90
2023-05-16T09:14:48.053Z,11.33
2023-05-16T09:17:18.699Z,11.97
2023-05-16T09:19:54.218Z,12.00
2023-05-16T09:22:26.103Z,12.40
2023-05-16T09:24:56.170Z,11.67
2023-05-16T09:27:25.992Z,12.10
2023-05-16T09:29:54.787Z,11.10
2023-05-16T09:32:23.246Z,12.80
2023-05-16T09:34:52.795Z,12.83
2023-05-16T09:37:21.715Z,12.77
2023-05-16T09:39:50.809Z,11.73
2023-05-16T09:42:21.789Z,12.03
2023-05-16T09:44:51.435Z,12.67
2023-05-16T09:47:20.323Z,12.60
2023-05-16T09:49:50.006Z,12.03
2023-05-16T09:52:18.923Z,11.80
2023-05-16T09:54:48.945Z,11.70
2023-05-16T09:57:21.673Z,12.70
2023-05-16T09:59:50.408Z,11.83
2023-05-16T10:02:19.528Z,12.33
2023-05-16T10:04:48.231Z,11.37
2023-05-16T10:07:17.243Z,12.07
2023-05-16T10:09:46.323Z,10.63
2023-05-16T10:12:16.327Z,10.47
2023-05-16T10:14:50.022Z,11.13
2023-05-16T10:17:18.954Z,10.40
2023-05-16T10:19:47.757Z,10.97
2023-05-16T10:22:16.844Z,10.50
2023-05-16T10:24:46.436Z,11.20
2023-05-16T10:27:19.220Z,9.80
2023-05-16T10:29:54.637Z,10.40
2023-05-16T10:32:25.675Z,11.70
2023-05-16T10:34:56.101Z,10.93
2023-05-16T10:37:25.516Z,12.53
2023-05-16T10:39:54.262Z,13.07
2023-05-16T10:42:23.060Z,14.87
2023-05-16T10:45:05.109Z,13.63
2023-05-16T10:47:35.066Z,13.13
2023-05-16T10:50:04.079Z,12.33
2023-05-16T10:52:35.406Z,13.97
2023-05-16T10:55:05.653Z,12.00
2023-05-16T10:57:40.007Z,11.73
2023-05-16T11:00:24.174Z,13.93
2023-05-16T11:02:53.837Z,12.53
2023-05-16T11:08:12.147Z,14.90
2023-05-16T11:10:40.753Z,16.17
2023-05-16T11:13:09.934Z,15.80
2023-05-16T11:15:40.131Z,16.90
2023-05-16T11:18:09.784Z,15.33
2023-05-16T11:20:39.438Z,15.27
2023-05-16T11:23:21.974Z,16.30
2023-05-16T11:25:52.751Z,20.37
2023-05-16T11:28:21.750Z,21.47
2023-05-16T11:30:57.339Z,24.87
2023-05-16T11:33:27.686Z,27.87
2023-05-16T11:36:15.336Z,21.50
2023-05-16T11:38:45.105Z,20.13
2023-05-16T11:41:15.686Z,21.50
2023-05-16T11:43:46.186Z,24.50
2023-05-16T11:46:24.700Z,22.20
2023-05-16T11:48:53.467Z,23.33
2023-05-16T11:51:22.069Z,22.93
2023-05-16T11:53:51.700Z,24.17
2023-05-16T11:56:21.733Z,23.93
2023-05-16T11:58:50.650Z,20.93
2023-05-16T12:01:20.650Z,17.73
2023-05-16T12:03:56.451Z,18.40
2023-05-16T12:06:25.215Z,18.97
2023-05-16T12:09:04.262Z,17.83
2023-05-16T12:11:33.191Z,9.77
2023-05-16T12:14:01.974Z,13.77
2023-05-16T12:16:32.993Z,16.17
2023-05-16T12:19:02.457Z,12.97
2023-05-16T12:24:33.865Z,22.07
2023-05-16T12:27:09.210Z,20.77
2023-05-16T12:29:37.909Z,18.83
2023-05-16T12:32:09.996Z,23.07
2023-05-16T12:34:40.944Z,15.50
2023-05-16T12:37:12.543Z,16.83
2023-05-16T12:39:41.067Z,16.30
2023-05-16T12:42:22.004Z,15.63
2023-05-16T12:51:35.729Z,20.13
2023-05-16T12:54:10.632Z,19.97
2023-05-16T12:56:42.303Z,20.00
2023-05-16T12:59:12.426Z,21.40
2023-05-16T13:01:42.182Z,14.60
2023-05-16T13:04:18.732Z,18.00
2023-05-16T13:06:57.356Z,16.00
2023-05-16T13:09:31.334Z,16.70
2023-05-16T13:12:24.526Z,14.87
2023-05-16T13:14:54.603Z,14.67
2023-05-16T13:17:23.751Z,15.40
2023-05-16T13:19:54.128Z,12.57
2023-05-16T13:22:25.251Z,13.63
2023-05-16T13:24:54.044Z,14.57
2023-05-16T13:27:22.764Z,19.57
2023-05-16T13:29:51.301Z,17.90
2023-05-16T13:32:20.251Z,19.67
2023-05-16T13:34:48.814Z,19.90
2023-05-16T13:37:18.875Z,18.50
2023-05-16T13:39:59.463Z,26.90
2023-05-16T13:42:29.499Z,23.73
2023-05-16T13:44:58.857Z,23.27
2023-05-16T13:47:35.264Z,26.83
2023-05-16T13:50:08.324Z,25.67
2023-05-16T13:52:39.040Z,28.43
2023-05-16T13:55:08.474Z,28.60
2023-05-16T13:57:38.985Z,25.77
2023-05-16T14:02:44.798Z,25.70
2023-05-16T14:05:13.456Z,22.37
2023-05-16T14:07:45.387Z,19.03
2023-05-16T14:10:17.575Z,17.50
2023-05-16T14:12:46.369Z,17.67
2023-05-16T14:15:15.119Z,16.30
2023-05-16T14:17:46.259Z,9.20
2023-05-16T14:20:16.221Z,8.73
2023-05-16T14:22:46.177Z,11.03
2023-05-16T14:25:14.639Z,9.67
2023-05-16T14:27:43.278Z,11.73
2023-05-16T14:30:13.307Z,8.10
2023-05-16T14:32:42.486Z,8.67
2023-05-16T14:35:11.732Z,8.30
2023-05-16T14:40:38.034Z,13.33
2023-05-16T14:43:07.897Z,14.73
2023-05-16T14:48:31.882Z,14.67
2023-05-16T14:51:00.648Z,16.43
2023-05-16T14:53:29.277Z,17.73
2023-05-16T14:56:00.407Z,18.77
2023-05-16T14:58:29.165Z,15.27
2023-05-16T15:01:01.218Z,16.50
2023-05-16T15:03:35.421Z,16.90
2023-05-16T15:06:12.142Z,15.87
2023-05-16T15:08:40.656Z,14.20
2023-05-16T15:11:14.999Z,12.90
2023-05-16T15:13:43.481Z,16.53
2023-05-16T15:16:12.339Z,12.83
2023-05-16T15:18:41.189Z,17.77
2023-05-16T15:21:10.183Z,20.70
2023-05-16T15:23:38.608Z,16.40
2023-05-16T15:26:07.741Z,21.60
2023-05-16T15:28:37.655Z,19.20
2023-05-16T15:31:07.356Z,21.70
2023-05-16T15:33:35.952Z,18.60
2023-05-16T15:36:04.417Z,18.67
2023-05-16T15:38:34.243Z,18.70
2023-05-16T15:41:18.555Z,17.37
2023-05-16T15:43:56.040Z,17.50
2023-05-16T15:46:24.764Z,17.90
2023-05-16T15:48:53.630Z,16.37
2023-05-16T15:51:22.298Z,20.27
2023-05-16T15:53:50.717Z,19.57
2023-05-16T15:56:19.207Z,19.27
2023-05-16T15:58:47.789Z,16.53
2023-05-16T16:01:18.079Z,16.10
2023-05-16T16:03:46.866Z,15.83
2023-05-16T16:06:15.554Z,14.77
2023-05-16T16:08:44.865Z,15.57
2023-05-16T16:11:13.424Z,17.50
2023-05-16T16:13:42.110Z,19.33
2023-05-16T16:16:10.916Z,17.43
2023-05-16T16:18:40.940Z,15.57
2023-05-16T16:21:10.319Z,15.43
2023-05-16T16:23:38.990Z,17.70
2023-05-16T16:26:07.751Z,19.83
2023-05-16T16:28:36.324Z,16.53
2023-05-16T16:31:05.125Z,16.70
2023-05-16T16:33:34.608Z,19.40
2023-05-16T16:36:04.786Z,17.83
2023-05-16T16:38:33.228Z,18.13
2023-05-16T16:41:01.659Z,22.13
2023-05-16T16:43:30.100Z,21.77
2023-05-16T16:45:58.787Z,23.07
2023-05-16T16:48:27.824Z,21.67
2023-05-16T16:50:56.835Z,16.33
2023-05-16T16:53:26.720Z,19.90
2023-05-16T17:10:24.482Z,17.53
2023-05-16T17:12:54.760Z,17.80
2023-05-16T17:15:29.422Z,20.50
2023-05-16T17:17:58.474Z,18.43
2023-05-16T17:20:26.970Z,20.47
2023-05-16T17:22:55.462Z,17.73
2023-05-16T17:25:25.429Z,18.87
2023-05-16T17:27:57.962Z,20.13
2023-05-16T17:30:30.494Z,14.17
2023-05-16T17:33:02.751Z,11.80
2023-05-16T17:35:31.434Z,14.30
2023-05-16T17:38:00.226Z,12.47
2023-05-16T17:40:30.137Z,11.63
2023-05-16T17:42:58.580Z,10.23
2023-05-16T17:45:28.473Z,10.60
2023-05-16T17:47:57.465Z,11.50
2023-05-16T17:50:27.207Z,10.57
2023-05-16T17:52:55.934Z,11.30
2023-05-16T17:55:24.951Z,11.00
2023-05-16T17:57:56.140Z,10.90
2023-05-16T18:00:25.169Z,10.57
2023-05-16T18:02:53.678Z,10.20
2023-05-16T18:05:22.224Z,9.60
2023-05-16T18:07:53.308Z,8.70
2023-05-16T18:10:21.936Z,8.40
2023-05-16T18:12:51.075Z,8.77
2023-05-16T18:15:24.350Z,8.57
2023-05-16T18:17:56.864Z,8.50
2023-05-16T18:20:26.391Z,8.50
2023-05-16T18:22:56.228Z,7.53
2023-05-16T18:25:27.209Z,7.77
2023-05-16T18:28:00.861Z,7.93
2023-05-16T18:30:47.014Z,7.80
2023-05-16T18:33:16.078Z,7.13
2023-05-16T18:35:49.752Z,7.43
2023-05-16T18:38:31.990Z,7.10
2023-05-16T18:41:03.754Z,7.00
2023-05-16T18:43:36.926Z,6.70
2023-05-16T18:46:10.418Z,6.10
2023-05-16T18:48:51.185Z,6.27
2023-05-16T18:51:24.143Z,6.83
2023-05-16T18:54:00.785Z,6.13
2023-05-16T18:56:33.160Z,5.70
2023-05-16T18:59:02.959Z,6.47
2023-05-16T19:01:44.134Z,5.73
2023-05-16T19:04:19.651Z,5.90
2023-05-16T19:06:56.668Z,7.27
2023-05-16T19:09:27.155Z,6.70
2023-05-16T19:12:00.502Z,6.20
2023-05-16T19:14:36.770Z,6.13
2023-05-16T19:17:08.250Z,6.00
2023-05-16T19:19:37.556Z,6.37
2023-05-16T19:22:07.032Z,6.70
2023-05-16T19:24:41.059Z,6.30
2023-05-16T19:27:10.142Z,5.97
2023-05-16T19:29:48.131Z,8.00
2023-05-16T19:32:22.355Z,6.50
2023-05-16T19:34:51.857Z,6.90
2023-05-16T19:37:21.320Z,5.93
2023-05-16T19:39:53.121Z,6.43
2023-05-16T19:42:29.752Z,6.93
2023-05-16T19:45:00.217Z,5.93
2023-05-16T19:47:30.790Z,6.17
2023-05-16T19:50:00.441Z,6.63
2023-05-16T19:52:31.664Z,5.90
2023-05-16T19:55:00.666Z,6.50
2023-05-16T19:57:29.978Z,6.63
2023-05-16T20:00:00.796Z,6.67
2023-05-16T20:02:31.754Z,5.97
2023-05-16T20:05:01.066Z,6.10
2023-05-16T20:07:30.448Z,6.30
2023-05-16T20:09:59.917Z,6.43
2023-05-16T20:12:28.667Z,6.13
2023-05-16T20:14:57.154Z,5.90
2023-05-16T20:17:31.130Z,5.40
2023-05-16T20:20:01.343Z,6.33
2023-05-16T20:22:32.451Z,6.80
2023-05-16T20:25:01.402Z,7.07
2023-05-16T20:27:31.796Z,6.93
2023-05-16T20:30:07.295Z,6.63
2023-05-16T20:32:39.974Z,5.90
2023-05-16T20:35:11.475Z,6.17
2023-05-16T20:37:42.512Z,6.53
2023-05-16T20:40:11.781Z,5.63
2023-05-16T20:42:40.729Z,5.50
2023-05-16T20:45:11.164Z,6.00
2023-05-16T20:47:41.863Z,5.83
2023-05-16T20:50:11.311Z,5.37
2023-05-16T20:52:40.191Z,5.17
2023-05-16T20:55:09.522Z,5.57
2023-05-16T20:57:38.588Z,5.13
2023-05-16T21:00:09.917Z,5.00
2023-05-16T21:02:39.615Z,4.80
2023-05-16T21:05:24.133Z,4.40
2023-05-16T21:07:56.772Z,4.90
2023-05-16T21:10:25.780Z,4.27
2023-05-16T21:12:58.095Z,5.20
2023-05-16T21:15:27.921Z,5.13
2023-05-16T21:17:56.998Z,5.20
2023-05-16T21:20:32.515Z,6.00
2023-05-16T21:23:01.135Z,5.23
2023-05-16T21:25:29.942Z,5.73
2023-05-16T21:27:58.719Z,5.40
2023-05-16T21:30:27.371Z,5.20
2023-05-16T21:32:55.891Z,5.20
2023-05-16T21:35:25.257Z,4.90
2023-05-16T21:37:55.538Z,5.60
2023-05-16T21:40:25.920Z,5.70
2023-05-16T21:42:54.732Z,5.63
2023-05-16T21:45:24.990Z,5.17
2023-05-16T21:47:55.562Z,5.50
2023-05-16T21:50:26.670Z,4.10
2023-05-16T21:52:56.941Z,4.47
2023-05-16T21:55:26.185Z,4.47
2023-05-16T21:58:05.442Z,3.70
2023-05-16T22:00:36.518Z,3.57
2023-05-16T22:03:05.214Z,3.97
2023-05-16T22:05:33.771Z,4.07
2023-05-16T22:08:06.076Z,4.43
2023-05-16T22:10:35.764Z,4.13
2023-05-16T22:13:04.319Z,4.10
2023-05-16T22:15:33.413Z,4.07
2023-05-16T22:18:02.101Z,3.80
2023-05-16T22:20:30.786Z,4.00
2023-05-16T22:22:59.523Z,3.80
2023-05-16T22:25:29.581Z,4.37
2023-05-16T22:27:58.553Z,3.77
2023-05-16T22:30:27.036Z,3.63
2023-05-16T22:32:57.064Z,3.73
2023-05-16T22:35:27.996Z,4.70
2023-05-16T22:37:56.770Z,4.03
2023-05-16T22:40:25.229Z,4.00
2023-05-16T22:42:55.088Z,3.50
2023-05-16T22:45:23.656Z,4.10
2023-05-16T22:47:52.110Z,3.50
2023-05-16T22:50:21.233Z,4.00
2023-05-16T22:52:49.661Z,4.10
2023-05-16T22:55:18.189Z,3.83
2023-05-16T22:57:46.633Z,3.80
2023-05-16T23:00:17.003Z,4.03
2023-05-16T23:02:46.897Z,3.80
2023-05-16T23:05:22.685Z,4.03
2023-05-16T23:07:51.218Z,3.13
2023-05-16T23:10:19.665Z,3.47
2023-05-16T23:12:49.072Z,3.80
2023-05-16T23:15:22.101Z,3.83
2023-05-16T23:17:51.605Z,3.53
2023-05-16T23:20:23.590Z,3.50
2023-05-16T23:22:52.152Z,3.60
2023-05-16T23:25:21.221Z,3.60
2023-05-16T23:27:49.766Z,3.30
2023-05-16T23:30:22.993Z,3.60
2023-05-16T23:32:52.589Z,3.27
2023-05-16T23:35:21.353Z,3.50
2023-05-16T23:37:49.772Z,3.20
2023-05-16T23:40:18.176Z,2.80
2023-05-16T23:42:46.920Z,3.33
2023-05-16T23:45:17.510Z,3.93
2023-05-16T23:47:47.586Z,3.40
2023-05-16T23:50:17.432Z,3.93
2023-05-16T23:52:46.127Z,3.47
2023-05-16T23:55:15.730Z,3.90
2023-05-16T23:57:47.546Z,3.80
